createdAt,value
2023-05-10T00:00:57.827Z,95524.91
2023-05-10T00:03:25.547Z,95523.09
2023-05-10T00:05:54.458Z,95517.94
2023-05-10T00:08:21.949Z,95508.59
2023-05-10T00:10:49.570Z,95497.88
2023-05-10T00:13:17.444Z,95510.44
2023-05-10T00:15:44.991Z,95506.16
2023-05-10T00:18:12.561Z,95499.78
2023-05-10T00:20:40.036Z,95506.16
2023-05-10T00:23:08.837Z,95497.75
2023-05-10T00:25:36.305Z,95489.06
2023-05-10T00:28:03.792Z,95494.03
2023-05-10T00:30:31.275Z,95492.63
2023-05-10T00:32:58.834Z,95493.94
2023-05-10T00:35:26.998Z,95486.88
2023-05-10T00:37:54.580Z,95496.75
2023-05-10T00:40:23.568Z,95494.06
2023-05-10T00:42:51.053Z,95491.50
2023-05-10T00:45:18.570Z,95490.59
2023-05-10T00:47:46.138Z,95494.06
2023-05-10T00:50:13.976Z,95495.91
2023-05-10T00:52:42.581Z,95498.78
2023-05-10T00:55:11.838Z,95490.66
2023-05-10T00:57:40.880Z,95492.88
2023-05-10T01:00:12.464Z,95494.16
2023-05-10T01:02:40.455Z,95484.41
2023-05-10T01:05:08.696Z,95487.69
2023-05-10T01:07:36.292Z,95495.13
2023-05-10T01:10:03.832Z,95494.00
2023-05-10T01:12:31.633Z,95489.75
2023-05-10T01:15:02.127Z,95486.81
2023-05-10T01:17:29.909Z,95489.06
2023-05-10T01:19:57.474Z,95491.97
2023-05-10T01:22:44.968Z,95494.50
2023-05-10T01:25:33.819Z,95495.38
2023-05-10T01:28:30.754Z,95497.91
2023-05-10T01:31:32.796Z,95501.06
2023-05-10T01:34:08.877Z,95507.19
2023-05-10T01:36:44.225Z,95504.28
2023-05-10T01:39:17.552Z,95502.19
2023-05-10T01:41:51.818Z,95512.91
2023-05-10T01:44:26.705Z,95506.78
2023-05-10T01:47:00.110Z,95508.69
2023-05-10T01:49:33.897Z,95506.25
2023-05-10T01:52:05.341Z,95511.19
2023-05-10T01:54:36.329Z,95502.69
2023-05-10T01:57:08.402Z,95505.56
2023-05-10T01:59:41.567Z,95502.44
2023-05-10T02:02:12.688Z,95503.75
2023-05-10T02:04:42.844Z,95506.81
2023-05-10T02:07:11.457Z,95506.63
2023-05-10T02:09:40.020Z,95503.97
2023-05-10T02:12:09.546Z,95503.78
2023-05-10T02:14:38.682Z,95502.75
2023-05-10T02:17:08.776Z,95505.63
2023-05-10T02:19:39.463Z,95512.53
2023-05-10T02:22:09.963Z,95509.28
2023-05-10T02:24:39.375Z,95503.00
2023-05-10T02:27:08.142Z,95503.72
2023-05-10T02:29:36.456Z,95497.50
2023-05-10T02:32:04.956Z,95496.31
2023-05-10T02:34:33.678Z,95493.63
2023-05-10T02:37:03.016Z,95494.50
2023-05-10T02:39:33.659Z,95493.03
2023-05-10T02:42:02.543Z,95491.56
2023-05-10T02:44:32.122Z,95496.00
2023-05-10T02:46:59.858Z,95491.94
2023-05-10T02:49:27.415Z,95486.34
2023-05-10T02:51:59.331Z,95488.22
2023-05-10T02:54:36.805Z,95485.13
2023-05-10T02:57:07.868Z,95492.72
2023-05-10T02:59:35.463Z,95484.13
2023-05-10T03:02:04.837Z,95487.38
2023-05-10T03:04:32.369Z,95500.13
2023-05-10T03:07:00.238Z,95495.75
2023-05-10T03:09:27.962Z,95495.53
2023-05-10T03:12:02.803Z,95499.03
2023-05-10T03:14:47.365Z,95496.22
2023-05-10T03:17:24.845Z,95500.34
2023-05-10T03:19:57.037Z,95501.56
2023-05-10T03:22:27.702Z,95509.78
2023-05-10T03:24:58.552Z,95506.50
2023-05-10T03:27:28.120Z,95507.53
2023-05-10T03:29:57.888Z,95511.03
2023-05-10T03:32:25.412Z,95507.94
2023-05-10T03:34:52.912Z,95511.03
2023-05-10T03:37:20.452Z,95511.00
2023-05-10T03:39:47.971Z,95505.22
2023-05-10T03:42:15.467Z,95518.84
2023-05-10T03:44:42.923Z,95512.06
2023-05-10T03:47:11.773Z,95511.41
2023-05-10T03:49:39.269Z,95510.16
2023-05-10T03:52:07.515Z,95510.19
2023-05-10T03:54:35.018Z,95508.34
2023-05-10T03:57:03.850Z,95515.53
2023-05-10T03:59:31.423Z,95514.91
2023-05-10T04:01:58.935Z,95518.81
2023-05-10T04:04:27.749Z,95523.53
2023-05-10T04:06:55.819Z,95523.72
2023-05-10T04:09:23.274Z,95514.28
2023-05-10T04:11:50.858Z,95517.38
2023-05-10T04:14:18.442Z,95521.03
2023-05-10T04:16:45.980Z,95522.09
2023-05-10T04:19:13.490Z,95527.88
2023-05-10T04:21:42.325Z,95529.69
2023-05-10T04:24:09.797Z,95525.63
2023-05-10T04:26:37.247Z,95530.75
2023-05-10T04:29:04.773Z,95528.06
2023-05-10T04:31:32.236Z,95529.50
2023-05-10T04:33:59.744Z,95527.88
2023-05-10T04:36:27.286Z,95531.13
2023-05-10T04:38:56.109Z,95530.75
2023-05-10T04:41:23.567Z,95527.88
2023-05-10T04:43:51.098Z,95540.97
2023-05-10T04:46:18.644Z,95551.41
2023-05-10T04:48:46.137Z,95546.63
2023-05-10T04:51:13.622Z,95547.97
2023-05-10T04:53:43.008Z,95551.66
2023-05-10T04:56:13.412Z,95550.66
2023-05-10T04:58:40.905Z,95554.16
2023-05-10T05:01:09.187Z,95553.53
2023-05-10T05:03:37.107Z,95548.59
2023-05-10T05:06:05.383Z,95554.94
2023-05-10T05:08:32.993Z,95557.41
2023-05-10T05:11:00.470Z,95561.50
2023-05-10T05:13:29.573Z,95561.88
2023-05-10T05:15:57.149Z,95573.81
2023-05-10T05:18:24.641Z,95572.97
2023-05-10T05:20:52.105Z,95570.34
2023-05-10T05:23:21.570Z,95573.97
2023-05-10T05:25:49.078Z,95579.97
2023-05-10T05:28:16.694Z,95583.66
2023-05-10T05:30:45.484Z,95584.53
2023-05-10T05:33:12.999Z,95589.69
2023-05-10T05:35:40.518Z,95593.00
2023-05-10T05:38:08.006Z,95610.28
2023-05-10T05:40:35.720Z,95612.13
2023-05-10T05:43:03.364Z,95628.34
2023-05-10T05:45:30.872Z,95625.09
2023-05-10T05:47:59.853Z,95631.28
2023-05-10T05:50:27.420Z,95629.25
2023-05-10T05:52:54.882Z,95624.41
2023-05-10T05:55:22.356Z,95622.78
2023-05-10T05:57:49.805Z,95620.28
2023-05-10T06:00:18.180Z,95636.72
2023-05-10T06:02:45.728Z,95636.72
2023-05-10T06:05:15.110Z,95639.31
2023-05-10T06:07:43.754Z,95644.03
2023-05-10T06:10:11.741Z,95650.25
2023-05-10T06:12:39.220Z,95651.88
2023-05-10T06:15:07.598Z,95643.97
2023-05-10T06:17:35.069Z,95653.13
2023-05-10T06:20:02.640Z,95661.03
2023-05-10T06:22:31.429Z,95658.53
2023-05-10T06:24:58.878Z,95660.63
2023-05-10T06:27:26.868Z,95662.41
2023-05-10T06:30:02.154Z,95674.97
2023-05-10T06:32:33.209Z,95670.41
2023-05-10T06:35:00.717Z,95680.22
2023-05-10T06:37:28.208Z,95679.25
2023-05-10T06:39:57.072Z,95673.75
2023-05-10T06:42:26.300Z,95679.16
2023-05-10T06:44:54.056Z,95675.34
2023-05-10T06:47:21.721Z,95680.50
2023-05-10T06:49:49.188Z,95694.66
2023-05-10T06:52:16.653Z,95702.53
2023-05-10T06:54:44.108Z,95701.59
2023-05-10T06:57:23.259Z,95710.81
2023-05-10T06:59:58.511Z,95705.81
2023-05-10T07:02:26.264Z,95703.66
2023-05-10T07:04:54.125Z,95705.63
2023-05-10T07:07:21.763Z,95700.06
2023-05-10T07:09:50.586Z,95702.97
2023-05-10T07:12:19.592Z,95696.34
2023-05-10T07:14:47.541Z,95710.19
2023-05-10T07:17:15.033Z,95696.03
2023-05-10T07:19:42.601Z,95701.91
2023-05-10T07:22:10.062Z,95704.84
2023-05-10T07:24:37.688Z,95702.41
2023-05-10T07:27:05.402Z,95707.31
2023-05-10T07:29:34.593Z,95702.47
2023-05-10T07:32:02.147Z,95699.88
2023-05-10T07:34:31.076Z,95713.59
2023-05-10T07:37:01.129Z,95704.34
2023-05-10T07:39:28.743Z,95715.94
2023-05-10T07:41:56.699Z,95714.53
2023-05-10T07:44:24.564Z,95711.69
2023-05-10T07:46:53.498Z,95710.16
2023-05-10T07:49:21.000Z,95722.13
2023-05-10T07:51:48.835Z,95727.34
2023-05-10T07:54:16.315Z,95716.13
2023-05-10T07:56:46.531Z,95711.22
2023-05-10T07:59:17.732Z,95710.41
2023-05-10T08:01:45.530Z,95703.22
2023-05-10T08:04:14.369Z,95716.78
2023-05-10T08:06:42.043Z,95723.06
2023-05-10T08:09:10.059Z,95727.97
2023-05-10T08:11:37.606Z,95723.16
2023-05-10T08:14:05.128Z,95707.50
2023-05-10T08:16:33.299Z,95715.44
2023-05-10T08:19:00.980Z,95714.69
2023-05-10T08:21:29.944Z,95715.13
2023-05-10T08:23:57.457Z,95719.44
2023-05-10T08:26:24.961Z,95711.09
2023-05-10T08:28:52.426Z,95718.22
2023-05-10T08:31:20.156Z,95722.47
2023-05-10T08:33:47.689Z,95727.06
2023-05-10T08:36:20.538Z,95724.56
2023-05-10T08:38:50.278Z,95737.06
2023-05-10T08:41:19.100Z,95746.44
2023-05-10T08:43:47.946Z,95747.00
2023-05-10T08:46:18.589Z,95748.25
2023-05-10T08:48:47.284Z,95742.28
2023-05-10T08:51:17.383Z,95744.03
2023-05-10T08:53:46.067Z,95743.50
2023-05-10T08:56:16.538Z,95740.38
2023-05-10T08:58:44.181Z,95744.06
2023-05-10T09:01:12.066Z,95742.50
2023-05-10T09:03:40.424Z,95751.31
2023-05-10T09:06:08.664Z,95754.16
2023-05-10T09:08:38.109Z,95748.63
2023-05-10T09:11:05.784Z,95748.13
2023-05-10T09:13:34.859Z,95747.31
2023-05-10T09:16:13.574Z,95752.28
2023-05-10T09:18:48.421Z,95748.19
2023-05-10T09:21:16.073Z,95762.06
2023-05-10T09:23:47.373Z,95761.00
2023-05-10T09:26:15.682Z,95769.66
2023-05-10T09:28:54.581Z,95762.63
2023-05-10T09:31:22.096Z,95748.19
2023-05-10T09:33:50.670Z,95744.84
2023-05-10T09:36:18.890Z,95761.97
2023-05-10T09:38:52.686Z,95754.97
2023-05-10T09:41:21.622Z,95755.47
2023-05-10T09:43:49.402Z,95748.78
2023-05-10T09:46:18.391Z,95745.69
2023-05-10T09:48:48.044Z,95744.00
2023-05-10T09:51:21.834Z,95746.94
2023-05-10T09:53:51.445Z,95741.25
2023-05-10T09:56:38.312Z,95746.06
2023-05-10T09:59:06.354Z,95738.84
2023-05-10T10:01:35.504Z,95735.00
2023-05-10T10:04:05.130Z,95731.50
2023-05-10T10:06:37.715Z,95733.63
2023-05-10T10:09:05.732Z,95726.44
2023-05-10T10:11:33.767Z,95729.06
2023-05-10T10:14:01.545Z,95730.38
2023-05-10T10:16:30.688Z,95727.59
2023-05-10T10:19:00.481Z,95720.59
2023-05-10T10:21:28.690Z,95728.59
2023-05-10T10:23:56.871Z,95725.56
2023-05-10T10:26:25.987Z,95736.84
2023-05-10T10:29:02.127Z,95738.94
2023-05-10T10:31:36.855Z,95735.38
2023-05-10T10:34:08.762Z,95732.66
2023-05-10T10:36:42.601Z,95726.34
2023-05-10T10:39:11.831Z,95720.84
2023-05-10T10:41:44.758Z,95723.84
2023-05-10T10:44:43.449Z,95727.91
2023-05-10T10:47:28.339Z,95729.66
2023-05-10T10:50:07.647Z,95730.28
2023-05-10T10:52:36.144Z,95717.97
2023-05-10T10:55:06.213Z,95726.56
2023-05-10T10:57:35.650Z,95723.50
2023-05-10T11:00:26.278Z,95723.28
2023-05-10T11:02:55.572Z,95728.66
2023-05-10T11:05:36.506Z,95714.75
2023-05-10T11:08:13.581Z,95718.63
2023-05-10T11:10:42.509Z,95714.59
2023-05-10T11:13:11.314Z,95721.22
2023-05-10T11:15:40.444Z,95725.72
2023-05-10T11:18:21.390Z,95724.72
2023-05-10T11:20:54.668Z,95730.75
2023-05-10T11:23:22.270Z,95725.78
2023-05-10T11:25:51.069Z,95725.19
2023-05-10T11:28:20.095Z,95716.50
2023-05-10T11:30:47.700Z,95719.19
2023-05-10T11:33:20.344Z,95718.34
2023-05-10T11:35:48.177Z,95714.72
2023-05-10T11:38:17.266Z,95710.34
2023-05-10T11:40:45.357Z,95704.78
2023-05-10T11:43:13.251Z,95715.59
2023-05-10T11:45:43.208Z,95717.63
2023-05-10T11:48:10.766Z,95701.41
2023-05-10T11:50:38.376Z,95708.53
2023-05-10T11:53:06.253Z,95710.59
2023-05-10T11:55:36.622Z,95716.41
2023-05-10T11:58:04.606Z,95722.94
2023-05-10T12:00:33.014Z,95722.78
2023-05-10T12:03:02.573Z,95725.72
2023-05-10T12:05:33.513Z,95729.56
2023-05-10T12:08:13.077Z,95717.72
2023-05-10T12:10:42.062Z,95726.44
2023-05-10T12:13:13.870Z,95724.75
2023-05-10T12:15:41.418Z,95727.25
2023-05-10T12:18:11.334Z,95727.72
2023-05-10T12:20:39.668Z,95736.91
2023-05-10T12:23:07.922Z,95740.28
2023-05-10T12:25:36.732Z,95738.03
2023-05-10T12:28:07.911Z,95744.75
2023-05-10T12:30:36.721Z,95745.56
2023-05-10T12:33:09.208Z,95745.03
2023-05-10T12:35:46.687Z,95751.56
2023-05-10T12:38:31.598Z,95752.81
2023-05-10T12:41:00.373Z,95743.66
2023-05-10T12:43:29.296Z,95748.09
2023-05-10T12:45:56.913Z,95748.16
2023-05-10T12:48:24.892Z,95754.88
2023-05-10T12:50:52.400Z,95748.41
2023-05-10T12:53:19.868Z,95748.69
2023-05-10T12:55:47.332Z,95748.81
2023-05-10T12:58:27.841Z,95740.75
2023-05-10T13:01:03.910Z,95737.50
2023-05-10T13:03:31.527Z,95740.78
2023-05-10T13:05:59.199Z,95740.97
2023-05-10T13:08:26.722Z,95742.84
2023-05-10T13:10:54.259Z,95745.66
2023-05-10T13:13:21.719Z,95748.28
2023-05-10T13:15:49.194Z,95742.25
2023-05-10T13:18:18.152Z,95745.47
2023-05-10T13:20:46.116Z,95738.47
2023-05-10T13:23:13.661Z,95743.75
2023-05-10T13:25:41.198Z,95739.78
2023-05-10T13:28:08.662Z,95749.88
2023-05-10T13:30:36.118Z,95740.13
2023-05-10T13:33:03.619Z,95742.63
2023-05-10T13:35:32.439Z,95747.31
2023-05-10T13:37:59.992Z,95736.47
2023-05-10T13:40:27.471Z,95738.03
2023-05-10T13:42:54.946Z,95738.50
2023-05-10T13:45:22.514Z,95734.53
2023-05-10T13:47:50.031Z,95744.09
2023-05-10T13:50:17.831Z,95736.59
2023-05-10T13:52:46.650Z,95742.13
2023-05-10T13:55:15.276Z,95738.25
2023-05-10T13:57:44.087Z,95742.56
2023-05-10T14:00:12.580Z,95739.56
2023-05-10T14:02:40.077Z,95744.94
2023-05-10T14:05:08.065Z,95742.19
2023-05-10T14:07:35.520Z,95730.63
2023-05-10T14:10:04.747Z,95737.53
2023-05-10T14:12:32.351Z,95739.38
2023-05-10T14:14:59.996Z,95739.16
2023-05-10T14:17:27.519Z,95741.31
2023-05-10T14:19:55.069Z,95732.97
2023-05-10T14:22:22.927Z,95731.94
2023-05-10T14:24:51.066Z,95739.50
2023-05-10T14:27:20.409Z,95741.09
2023-05-10T14:29:47.859Z,95744.25
2023-05-10T14:32:15.458Z,95754.84
2023-05-10T14:34:43.138Z,95755.41
2023-05-10T14:37:12.240Z,95760.53
2023-05-10T14:39:40.040Z,95760.66
2023-05-10T14:42:07.823Z,95751.25
2023-05-10T14:44:36.620Z,95757.28
2023-05-10T14:47:04.088Z,95766.16
2023-05-10T14:49:31.716Z,95764.50
2023-05-10T14:51:59.232Z,95769.84
2023-05-10T14:54:26.868Z,95785.91
2023-05-10T14:56:54.319Z,95784.81
2023-05-10T14:59:22.563Z,95781.16
2023-05-10T15:01:51.790Z,95785.28
2023-05-10T15:04:19.744Z,95782.56
2023-05-10T15:06:47.753Z,95783.25
2023-05-10T15:09:16.493Z,95780.78
2023-05-10T15:11:45.347Z,95792.03
2023-05-10T15:14:12.784Z,95797.16
2023-05-10T15:16:40.621Z,95801.94
2023-05-10T15:19:09.475Z,95807.13
2023-05-10T15:21:39.722Z,95807.88
2023-05-10T15:24:07.390Z,95819.59
2023-05-10T15:26:35.004Z,95816.94
2023-05-10T15:29:02.579Z,95813.06
2023-05-10T15:31:30.182Z,95806.44
2023-05-10T15:33:59.333Z,95806.63
2023-05-10T15:36:28.166Z,95816.66
2023-05-10T15:38:56.858Z,95821.09
2023-05-10T15:41:24.694Z,95817.38
2023-05-10T15:43:52.225Z,95822.13
2023-05-10T15:46:19.688Z,95829.59
2023-05-10T15:48:47.191Z,95831.56
2023-05-10T15:51:15.453Z,95833.50
2023-05-10T15:53:56.550Z,95830.78
2023-05-10T15:56:31.682Z,95824.56
2023-05-10T15:58:59.132Z,95841.59
2023-05-10T16:01:26.752Z,95840.53
2023-05-10T16:03:54.333Z,95833.63
2023-05-10T16:06:22.065Z,95836.28
2023-05-10T16:08:51.994Z,95833.00
2023-05-10T16:11:21.112Z,95833.44
2023-05-10T16:13:48.611Z,95823.56
2023-05-10T16:16:16.156Z,95829.72
2023-05-10T16:18:43.807Z,95826.91
2023-05-10T16:21:11.503Z,95827.47
2023-05-10T16:23:38.951Z,95827.59
2023-05-10T16:26:07.753Z,95832.19
2023-05-10T16:28:35.319Z,95829.94
2023-05-10T16:31:02.962Z,95825.59
2023-05-10T16:33:30.738Z,95823.97
2023-05-10T16:35:58.249Z,95830.94
2023-05-10T16:38:25.730Z,95824.19
2023-05-10T16:40:53.218Z,95825.22
2023-05-10T16:43:24.005Z,95827.28
2023-05-10T16:45:52.814Z,95827.06
2023-05-10T16:48:20.466Z,95839.22
2023-05-10T16:50:48.957Z,95834.69
2023-05-10T16:53:17.012Z,95834.06
2023-05-10T16:55:44.466Z,95844.13
2023-05-10T16:58:11.938Z,95840.03
2023-05-10T17:00:40.753Z,95837.16
2023-05-10T17:03:08.369Z,95844.16
2023-05-10T17:05:35.969Z,95851.13
2023-05-10T17:08:03.436Z,95844.97
2023-05-10T17:10:30.967Z,95848.91
2023-05-10T17:12:58.484Z,95848.47
2023-05-10T17:15:26.217Z,95868.44
2023-05-10T17:17:55.141Z,95868.81
2023-05-10T17:20:22.838Z,95880.97
2023-05-10T17:22:50.411Z,95883.72
2023-05-10T17:25:18.097Z,95893.41
2023-05-10T17:27:45.808Z,95883.00
2023-05-10T17:30:13.946Z,95883.66
2023-05-10T17:32:41.459Z,95892.19
2023-05-10T17:35:10.723Z,95891.47
2023-05-10T17:37:38.190Z,95884.81
2023-05-10T17:40:07.859Z,95885.59
2023-05-10T17:42:35.358Z,95878.84
2023-05-10T17:45:03.717Z,95891.50
2023-05-10T17:47:31.203Z,95896.28
2023-05-10T17:49:58.710Z,95894.47
2023-05-10T17:52:29.360Z,95901.00
2023-05-10T17:54:57.938Z,95908.66
2023-05-10T17:57:25.424Z,95914.31
2023-05-10T17:59:52.852Z,95926.75
2023-05-10T18:02:20.361Z,95928.34
2023-05-10T18:04:49.242Z,95928.63
2023-05-10T18:07:16.892Z,95946.53
2023-05-10T18:09:45.872Z,95945.97
2023-05-10T18:12:13.524Z,95951.94
2023-05-10T18:14:41.605Z,95948.34
2023-05-10T18:17:09.995Z,95955.84
2023-05-10T18:19:37.697Z,95954.25
2023-05-10T18:22:05.505Z,95951.50
2023-05-10T18:24:40.307Z,95955.13
2023-05-10T18:27:09.747Z,95953.66
2023-05-10T18:29:37.708Z,95964.56
2023-05-10T18:32:05.709Z,95965.28
2023-05-10T18:34:33.287Z,95963.38
2023-05-10T18:37:02.413Z,95973.88
2023-05-10T18:39:30.618Z,95976.00
2023-05-10T18:41:58.088Z,95964.59
2023-05-10T18:44:26.949Z,95971.22
2023-05-10T18:46:54.409Z,95972.72
2023-05-10T18:49:21.898Z,95974.31
2023-05-10T18:51:49.408Z,95969.66
2023-05-10T18:54:16.974Z,95981.28
2023-05-10T18:56:45.226Z,95976.06
2023-05-10T18:59:13.271Z,95983.16
2023-05-10T19:01:42.706Z,95986.34
2023-05-10T19:04:10.261Z,95990.41
2023-05-10T19:06:37.762Z,95985.31
2023-05-10T19:09:05.406Z,95991.66
2023-05-10T19:11:34.402Z,95994.19
2023-05-10T19:14:02.265Z,96000.41
2023-05-10T19:16:30.574Z,95997.56
2023-05-10T19:18:59.698Z,96000.28
2023-05-10T19:21:27.630Z,95999.81
2023-05-10T19:23:58.002Z,96000.16
2023-05-10T19:26:25.939Z,96006.66
2023-05-10T19:28:53.644Z,96012.34
2023-05-10T19:31:21.908Z,96010.84
2023-05-10T19:33:49.528Z,96004.31
2023-05-10T19:36:18.365Z,95993.88
2023-05-10T19:38:45.879Z,96011.38
2023-05-10T19:41:13.393Z,96008.19
2023-05-10T19:43:41.801Z,96002.56
2023-05-10T19:46:09.874Z,96011.38
2023-05-10T19:48:37.595Z,96008.91
2023-05-10T19:51:09.285Z,95997.13
2023-05-10T19:53:41.259Z,96004.09
2023-05-10T19:56:08.804Z,96014.22
2023-05-10T19:58:36.522Z,96001.00
2023-05-10T20:01:05.731Z,96002.16
2023-05-10T20:03:33.564Z,96007.28
2023-05-10T20:06:01.656Z,96006.06
2023-05-10T20:08:29.646Z,96009.31
2023-05-10T20:11:00.569Z,96005.59
2023-05-10T20:13:28.039Z,96012.34
2023-05-10T20:15:56.811Z,96010.72
2023-05-10T20:18:24.654Z,96010.72
2023-05-10T20:20:54.776Z,96004.69
2023-05-10T20:23:22.406Z,96000.75
2023-05-10T20:25:50.144Z,96003.78
2023-05-10T20:28:22.539Z,96012.34
2023-05-10T20:30:53.239Z,96012.66
2023-05-10T20:33:21.021Z,96007.34
2023-05-10T20:35:48.946Z,96016.81
2023-05-10T20:38:16.772Z,96003.84
2023-05-10T20:40:44.397Z,96007.84
2023-05-10T20:43:11.909Z,95995.44
2023-05-10T20:45:40.737Z,96005.25
2023-05-10T20:48:09.502Z,96004.69
2023-05-10T20:50:37.001Z,96002.75
2023-05-10T20:53:04.451Z,96012.84
2023-05-10T20:55:31.936Z,96016.69
2023-05-10T20:57:59.449Z,96008.31
2023-05-10T21:00:27.178Z,96006.44
2023-05-10T21:02:56.810Z,96006.44
2023-05-10T21:05:24.496Z,96004.59
2023-05-10T21:07:54.052Z,96004.41
2023-05-10T21:10:21.871Z,95998.31
2023-05-10T21:12:49.744Z,96012.66
2023-05-10T21:15:17.601Z,95996.59
2023-05-10T21:17:45.752Z,95996.38
2023-05-10T21:20:15.244Z,95990.06
2023-05-10T21:22:42.978Z,95997.09
2023-05-10T21:25:10.926Z,95994.06
2023-05-10T21:27:38.415Z,95993.13
2023-05-10T21:30:07.247Z,95992.31
2023-05-10T21:32:35.674Z,95994.13
2023-05-10T21:35:04.218Z,95988.34
2023-05-10T21:37:33.076Z,95987.25
2023-05-10T21:40:02.005Z,95984.91
2023-05-10T21:42:29.466Z,95990.91
2023-05-10T21:44:57.000Z,95987.25
2023-05-10T21:47:24.484Z,95995.56
2023-05-10T21:49:51.967Z,95992.09
2023-05-10T21:52:19.438Z,95994.56
2023-05-10T21:54:48.542Z,95996.72
2023-05-10T21:57:16.055Z,95998.91
2023-05-10T21:59:43.552Z,96008.16
2023-05-10T22:02:11.083Z,95996.75
2023-05-10T22:04:38.578Z,95999.19
2023-05-10T22:07:06.084Z,95999.88
2023-05-10T22:09:33.569Z,95993.34
2023-05-10T22:12:02.366Z,95991.84
2023-05-10T22:14:29.822Z,95989.66
2023-05-10T22:16:58.139Z,95981.59
2023-05-10T22:19:25.824Z,95983.81
2023-05-10T22:21:53.943Z,95979.25
2023-05-10T22:24:21.431Z,95986.91
2023-05-10T22:26:48.903Z,95972.59
2023-05-10T22:29:17.722Z,95964.72
2023-05-10T22:31:45.385Z,95958.84
2023-05-10T22:34:12.853Z,95966.78
2023-05-10T22:36:40.297Z,95960.56
2023-05-10T22:39:08.283Z,95967.53
2023-05-10T22:41:35.744Z,95968.03
2023-05-10T22:44:04.848Z,95971.09
2023-05-10T22:46:33.821Z,95974.09
2023-05-10T22:49:01.730Z,95973.69
2023-05-10T22:51:29.198Z,95978.31
2023-05-10T22:53:56.673Z,95976.56
2023-05-10T22:56:24.158Z,95977.25
2023-05-10T22:58:52.220Z,95977.34
2023-05-10T23:01:19.781Z,95984.09
2023-05-10T23:03:48.620Z,95975.28
2023-05-10T23:06:16.076Z,95982.75
2023-05-10T23:08:43.543Z,95979.16
2023-05-10T23:11:11.009Z,95984.19
2023-05-10T23:13:38.469Z,95979.38
2023-05-10T23:16:06.987Z,95986.34
2023-05-10T23:18:34.787Z,95984.88
2023-05-10T23:21:03.630Z,95982.97
2023-05-10T23:23:32.674Z,95989.63
2023-05-10T23:26:00.235Z,95986.19
2023-05-10T23:28:27.761Z,95983.09
2023-05-10T23:30:56.212Z,95991.16
2023-05-10T23:33:24.223Z,95994.81
2023-05-10T23:35:51.858Z,95987.09
2023-05-10T23:38:20.660Z,95984.09
2023-05-10T23:40:49.208Z,95980.84
2023-05-10T23:43:17.569Z,95986.13
2023-05-10T23:45:53.517Z,95984.78
2023-05-10T23:48:21.013Z,95985.69
2023-05-10T23:50:49.046Z,95977.50
2023-05-10T23:53:16.768Z,95969.84
2023-05-10T23:55:46.338Z,95972.28
2023-05-10T23:58:13.831Z,95964.81
